createdAt,value
2022-09-03T00:01:08.769Z,99527.09
2022-09-03T00:03:36.523Z,99528.09
2022-09-03T00:06:05.507Z,99524.56
2022-09-03T00:08:33.656Z,99529.13
2022-09-03T00:11:02.385Z,99524.09
2022-09-03T00:13:30.052Z,99522.59
2022-09-03T00:15:58.005Z,99525.50
2022-09-03T00:18:25.836Z,99524.00
2022-09-03T00:20:53.477Z,99526.69
2022-09-03T00:23:21.186Z,99524.34
2022-09-03T00:25:49.147Z,99525.56
2022-09-03T00:28:16.932Z,99524.06
2022-09-03T00:30:44.531Z,99523.59
2022-09-03T00:33:13.335Z,99523.13
2022-09-03T00:35:41.404Z,99519.56
2022-09-03T00:38:09.003Z,99522.47
2022-09-03T00:40:36.747Z,99520.97
2022-09-03T00:43:04.495Z,99519.28
2022-09-03T00:45:32.752Z,99522.00
2022-09-03T00:48:00.461Z,99525.69
2022-09-03T00:50:29.575Z,99515.09
2022-09-03T00:52:57.474Z,99513.78
2022-09-03T00:55:25.458Z,99512.28
2022-09-03T00:57:53.151Z,99520.53
2022-09-03T01:00:20.906Z,99519.84
2022-09-03T01:02:48.840Z,99525.25
2022-09-03T01:05:16.875Z,99519.56
2022-09-03T01:07:46.423Z,99525.50
2022-09-03T01:10:14.192Z,99515.28
2022-09-03T01:12:41.899Z,99519.97
2022-09-03T01:15:10.390Z,99516.63
2022-09-03T01:17:38.421Z,99523.22
2022-09-03T01:20:06.204Z,99517.34
2022-09-03T01:22:33.811Z,99525.63
2022-09-03T01:25:02.288Z,99520.59
2022-09-03T01:27:30.068Z,99523.44
2022-09-03T01:29:58.601Z,99528.34
2022-09-03T01:32:28.060Z,99526.19
2022-09-03T01:34:56.087Z,99519.69
2022-09-03T01:37:23.801Z,99519.34
2022-09-03T01:39:51.524Z,99519.56
2022-09-03T01:42:20.899Z,99522.97
2022-09-03T01:44:52.881Z,99524.69
2022-09-03T01:47:20.807Z,99521.66
2022-09-03T01:49:48.458Z,99522.19
2022-09-03T01:52:16.199Z,99513.34
2022-09-03T01:54:44.132Z,99511.84
2022-09-03T01:57:12.665Z,99506.66
2022-09-03T01:59:59.574Z,99509.91
2022-09-03T02:02:27.331Z,99514.84
2022-09-03T02:04:55.226Z,99512.50
2022-09-03T02:07:22.879Z,99513.69
2022-09-03T02:09:50.502Z,99508.53
2022-09-03T02:12:18.834Z,99509.38
2022-09-03T02:14:46.845Z,99506.69
2022-09-03T02:17:14.865Z,99506.72
2022-09-03T02:19:42.689Z,99519.00
2022-09-03T02:22:10.422Z,99515.97
2022-09-03T02:24:39.022Z,99519.78
2022-09-03T02:27:06.687Z,99516.44
2022-09-03T02:29:34.374Z,99513.41
2022-09-03T02:32:02.079Z,99513.25
2022-09-03T02:34:29.814Z,99512.06
2022-09-03T02:36:57.748Z,99509.03
2022-09-03T02:39:25.608Z,99512.41
2022-09-03T02:41:53.282Z,99514.41
2022-09-03T02:44:24.162Z,99513.41
2022-09-03T02:46:53.223Z,99508.88
2022-09-03T02:49:20.886Z,99511.56
2022-09-03T02:51:48.513Z,99511.38
2022-09-03T02:54:20.714Z,99505.03
2022-09-03T02:56:50.014Z,99504.00
2022-09-03T02:59:18.125Z,99509.03
2022-09-03T03:01:46.469Z,99506.16
2022-09-03T03:04:14.491Z,99503.94
2022-09-03T03:06:42.527Z,99503.78
2022-09-03T03:09:15.375Z,99503.59
2022-09-03T03:11:43.154Z,99505.06
2022-09-03T03:14:10.906Z,99503.91
2022-09-03T03:16:38.706Z,99500.88
2022-09-03T03:19:06.655Z,99505.03
2022-09-03T03:21:34.268Z,99511.88
2022-09-03T03:24:02.023Z,99498.09
2022-09-03T03:26:29.748Z,99500.09
2022-09-03T03:28:58.229Z,99501.25
2022-09-03T03:31:25.974Z,99491.72
2022-09-03T03:33:54.170Z,99496.38
2022-09-03T03:36:22.113Z,99500.22
2022-09-03T03:38:49.805Z,99492.50
2022-09-03T03:41:17.556Z,99496.19
2022-09-03T03:43:45.198Z,99501.72
2022-09-03T03:46:13.867Z,99490.97
2022-09-03T03:48:41.567Z,99488.97
2022-09-03T03:51:10.065Z,99501.41
2022-09-03T03:53:37.748Z,99490.69
2022-09-03T03:56:05.732Z,99492.50
2022-09-03T03:58:33.539Z,99485.31
2022-09-03T04:01:01.435Z,99493.50
2022-09-03T04:03:29.455Z,99482.94
2022-09-03T04:05:57.632Z,99484.78
2022-09-03T04:08:25.368Z,99476.03
2022-09-03T04:10:53.160Z,99469.84
2022-09-03T04:13:21.010Z,99474.38
2022-09-03T04:15:49.017Z,99465.50
2022-09-03T04:18:16.681Z,99465.66
2022-09-03T04:20:44.734Z,99468.50
2022-09-03T04:23:12.927Z,99466.28
2022-09-03T04:25:42.063Z,99476.19
2022-09-03T04:28:09.655Z,99464.78
2022-09-03T04:30:37.342Z,99464.94
2022-09-03T04:33:04.961Z,99464.09
2022-09-03T04:35:33.821Z,99468.78
2022-09-03T04:38:04.448Z,99464.44
2022-09-03T04:40:32.052Z,99466.41
2022-09-03T04:43:00.526Z,99458.22
2022-09-03T04:45:28.954Z,99460.25
2022-09-03T04:47:57.290Z,99451.25
2022-09-03T04:50:25.537Z,99454.81
2022-09-03T04:52:53.194Z,99458.34
2022-09-03T04:55:21.161Z,99450.66
2022-09-03T04:57:48.903Z,99450.53
2022-09-03T05:00:18.893Z,99453.91
2022-09-03T05:02:48.827Z,99455.44
2022-09-03T05:05:21.126Z,99455.31
2022-09-03T05:07:48.860Z,99452.63
2022-09-03T05:10:20.533Z,99461.50
2022-09-03T05:12:48.509Z,99459.00
2022-09-03T05:15:16.243Z,99455.66
2022-09-03T05:17:43.915Z,99450.28
2022-09-03T05:20:11.726Z,99452.13
2022-09-03T05:22:39.528Z,99452.13
2022-09-03T05:25:07.163Z,99454.97
2022-09-03T05:27:34.828Z,99450.25
2022-09-03T05:30:02.469Z,99446.22
2022-09-03T05:32:31.186Z,99447.59
2022-09-03T05:34:59.152Z,99449.25
2022-09-03T05:37:26.957Z,99444.34
2022-09-03T05:39:54.774Z,99450.38
2022-09-03T05:42:23.353Z,99445.47
2022-09-03T05:44:51.509Z,99451.47
2022-09-03T05:47:19.238Z,99448.75
2022-09-03T05:49:46.902Z,99440.47
2022-09-03T05:52:14.591Z,99445.28
2022-09-03T05:54:42.658Z,99445.72
2022-09-03T05:57:10.545Z,99438.78
2022-09-03T05:59:38.202Z,99443.94
2022-09-03T06:02:05.890Z,99445.38
2022-09-03T06:04:33.997Z,99446.81
2022-09-03T06:07:02.151Z,99439.50
2022-09-03T06:09:29.901Z,99450.91
2022-09-03T06:11:57.630Z,99449.81
2022-09-03T06:14:27.376Z,99452.06
2022-09-03T06:16:57.170Z,99450.97
2022-09-03T06:19:24.831Z,99446.19
2022-09-03T06:21:52.487Z,99448.97
2022-09-03T06:24:20.324Z,99440.63
2022-09-03T06:26:48.932Z,99443.88
2022-09-03T06:29:16.842Z,99439.91
2022-09-03T06:31:44.915Z,99443.63
2022-09-03T06:34:12.725Z,99438.84
2022-09-03T06:36:42.547Z,99443.53
2022-09-03T06:39:10.155Z,99439.69
2022-09-03T06:41:38.174Z,99432.03
2022-09-03T06:44:05.861Z,99436.69
2022-09-03T06:46:35.213Z,99440.47
2022-09-03T06:49:02.910Z,99442.88
2022-09-03T06:51:30.565Z,99435.44
2022-09-03T06:53:58.558Z,99436.19
2022-09-03T06:56:27.319Z,99442.31
2022-09-03T06:58:55.458Z,99439.25
2022-09-03T07:01:23.335Z,99424.53
2022-09-03T07:03:51.177Z,99433.59
2022-09-03T07:06:19.656Z,99435.56
2022-09-03T07:08:47.486Z,99442.09
2022-09-03T07:11:15.157Z,99442.84
2022-09-03T07:13:43.403Z,99444.56
2022-09-03T07:16:11.181Z,99442.97
2022-09-03T07:18:39.374Z,99435.13
2022-09-03T07:21:07.138Z,99438.94
2022-09-03T07:23:34.756Z,99440.41
2022-09-03T07:26:02.448Z,99443.56
2022-09-03T07:28:30.068Z,99436.09
2022-09-03T07:30:57.781Z,99443.66
2022-09-03T07:33:25.409Z,99438.69
2022-09-03T07:35:53.420Z,99438.25
2022-09-03T07:38:21.155Z,99440.38
2022-09-03T07:40:48.899Z,99440.59
2022-09-03T07:43:16.905Z,99442.47
2022-09-03T07:45:46.699Z,99437.66
2022-09-03T07:48:14.456Z,99446.84
2022-09-03T07:50:42.259Z,99445.38
2022-09-03T07:53:09.870Z,99450.41
2022-09-03T07:55:37.606Z,99450.59
2022-09-03T07:58:05.218Z,99451.47
2022-09-03T08:00:34.254Z,99450.81
2022-09-03T08:03:06.387Z,99457.31
2022-09-03T08:05:34.308Z,99445.41
2022-09-03T08:08:02.079Z,99456.66
2022-09-03T08:10:32.798Z,99457.88
2022-09-03T08:13:00.556Z,99463.34
2022-09-03T08:15:28.566Z,99465.59
2022-09-03T08:17:59.637Z,99467.47
2022-09-03T08:20:31.698Z,99474.41
2022-09-03T08:22:59.309Z,99476.28
2022-09-03T08:25:27.308Z,99478.78
2022-09-03T08:27:55.445Z,99472.31
2022-09-03T08:30:25.191Z,99477.53
2022-09-03T08:32:52.946Z,99473.56
2022-09-03T08:35:21.780Z,99473.78
2022-09-03T08:37:54.842Z,99470.00
2022-09-03T08:40:24.518Z,99473.13
2022-09-03T08:42:52.319Z,99468.06
2022-09-03T08:45:19.994Z,99464.72
2022-09-03T08:47:47.696Z,99461.53
2022-09-03T08:50:15.919Z,99462.97
2022-09-03T08:52:49.204Z,99466.50
2022-09-03T08:55:17.074Z,99466.09
2022-09-03T08:57:44.696Z,99467.91
2022-09-03T09:00:12.395Z,99462.22
2022-09-03T09:02:40.249Z,99468.31
2022-09-03T09:05:12.260Z,99469.34
2022-09-03T09:07:41.967Z,99463.00
2022-09-03T09:10:09.644Z,99460.41
2022-09-03T09:12:42.792Z,99461.50
2022-09-03T09:15:14.936Z,99460.41
2022-09-03T09:17:42.589Z,99453.25
2022-09-03T09:20:10.590Z,99455.75
2022-09-03T09:22:38.510Z,99458.09
2022-09-03T09:25:06.384Z,99454.06
2022-09-03T09:27:34.103Z,99439.66
2022-09-03T09:30:02.147Z,99447.09
2022-09-03T09:32:32.133Z,99442.06
2022-09-03T09:35:00.089Z,99434.97
2022-09-03T09:37:27.999Z,99438.56
2022-09-03T09:39:55.746Z,99434.56
2022-09-03T09:42:23.479Z,99435.38
2022-09-03T09:44:52.236Z,99427.16
2022-09-03T09:47:20.127Z,99433.94
2022-09-03T09:49:47.968Z,99432.97
2022-09-03T09:52:15.835Z,99432.00
2022-09-03T09:54:43.589Z,99428.28
2022-09-03T09:57:11.330Z,99429.53
2022-09-03T09:59:38.992Z,99420.09
2022-09-03T10:02:06.677Z,99411.16
2022-09-03T10:04:34.341Z,99415.56
2022-09-03T10:07:02.219Z,99416.38
2022-09-03T10:09:31.546Z,99420.56
2022-09-03T10:12:00.374Z,99424.28
2022-09-03T10:14:28.191Z,99413.03
2022-09-03T10:16:55.951Z,99412.00
2022-09-03T10:19:23.830Z,99411.78
2022-09-03T10:21:51.674Z,99415.66
2022-09-03T10:24:19.416Z,99409.75
2022-09-03T10:26:47.200Z,99416.41
2022-09-03T10:29:16.340Z,99417.47
2022-09-03T10:31:44.219Z,99422.84
2022-09-03T10:34:12.076Z,99429.16
2022-09-03T10:36:40.067Z,99425.19
2022-09-03T10:39:07.700Z,99423.28
2022-09-03T10:41:35.555Z,99426.22
2022-09-03T10:44:03.401Z,99419.38
2022-09-03T10:46:31.368Z,99409.88
2022-09-03T10:48:59.297Z,99403.16
2022-09-03T10:51:27.284Z,99405.44
2022-09-03T10:53:55.974Z,99399.91
2022-09-03T10:56:24.554Z,99392.06
2022-09-03T10:58:53.156Z,99395.25
2022-09-03T11:01:22.514Z,99400.03
2022-09-03T11:03:50.283Z,99402.41
2022-09-03T11:06:19.584Z,99403.47
2022-09-03T11:08:47.302Z,99417.22
2022-09-03T11:11:15.311Z,99413.78
2022-09-03T11:13:43.547Z,99405.25
2022-09-03T11:16:12.763Z,99398.06
2022-09-03T11:18:40.465Z,99403.19
2022-09-03T11:21:12.338Z,99399.88
2022-09-03T11:23:40.832Z,99400.94
2022-09-03T11:26:12.865Z,99406.91
2022-09-03T11:28:42.246Z,99420.44
2022-09-03T11:31:13.829Z,99417.09
2022-09-03T11:33:41.675Z,99409.88
2022-09-03T11:36:09.648Z,99405.88
2022-09-03T11:38:39.187Z,99404.97
2022-09-03T11:41:07.086Z,99413.56
2022-09-03T11:43:34.796Z,99409.56
2022-09-03T11:46:03.488Z,99417.50
2022-09-03T11:48:31.237Z,99414.66
2022-09-03T11:50:59.163Z,99408.72
2022-09-03T11:53:28.307Z,99415.22
2022-09-03T11:55:56.194Z,99412.44
2022-09-03T11:58:24.441Z,99403.31
2022-09-03T12:00:55.326Z,99413.66
2022-09-03T12:03:23.014Z,99404.31
2022-09-03T12:05:51.791Z,99404.56
2022-09-03T12:08:19.466Z,99405.22
2022-09-03T12:10:47.139Z,99405.03
2022-09-03T12:13:15.207Z,99408.69
2022-09-03T12:15:43.837Z,99409.25
2022-09-03T12:18:20.498Z,99401.88
2022-09-03T12:20:48.200Z,99406.75
2022-09-03T12:23:16.593Z,99417.03
2022-09-03T12:25:45.949Z,99415.94
2022-09-03T12:28:13.923Z,99415.59
2022-09-03T12:30:41.753Z,99416.41
2022-09-03T12:33:15.479Z,99415.78
2022-09-03T12:35:59.410Z,99417.22
2022-09-03T12:38:27.497Z,99417.69
2022-09-03T12:43:49.464Z,99415.38
2022-09-03T12:46:18.223Z,99415.63
2022-09-03T12:48:47.178Z,99405.31
2022-09-03T12:54:02.521Z,99420.31
2022-09-03T12:56:33.441Z,99423.69
2022-09-03T12:59:01.689Z,99421.94
2022-09-03T13:01:31.999Z,99417.53
2022-09-03T13:04:01.193Z,99422.03
2022-09-03T13:06:28.819Z,99420.22
2022-09-03T13:08:56.601Z,99414.78
2022-09-03T13:11:24.775Z,99406.69
2022-09-03T13:13:52.732Z,99413.50
2022-09-03T13:16:20.576Z,99413.25
2022-09-03T13:18:48.308Z,99415.06
2022-09-03T13:21:16.156Z,99409.47
2022-09-03T13:23:44.200Z,99410.25
2022-09-03T13:26:12.061Z,99412.13
2022-09-03T13:28:40.168Z,99395.91
2022-09-03T13:31:07.997Z,99404.19
2022-09-03T13:33:35.998Z,99394.44
2022-09-03T13:36:04.044Z,99400.13
2022-09-03T13:38:36.958Z,99400.75
2022-09-03T13:41:05.079Z,99394.38
2022-09-03T13:43:32.851Z,99398.97
2022-09-03T13:46:00.632Z,99390.94
2022-09-03T13:48:45.589Z,99395.16
2022-09-03T13:51:13.606Z,99381.63
2022-09-03T13:53:41.394Z,99383.53
2022-09-03T13:56:10.218Z,99379.00
2022-09-03T13:58:38.004Z,99389.78
2022-09-03T14:01:06.281Z,99388.38
2022-09-03T14:03:34.861Z,99388.91
2022-09-03T14:06:02.492Z,99380.97
2022-09-03T14:08:30.300Z,99390.94
2022-09-03T14:10:58.064Z,99385.59
2022-09-03T14:13:26.069Z,99397.75
2022-09-03T14:15:53.711Z,99401.22
2022-09-03T14:18:23.796Z,99395.09
2022-09-03T14:20:51.483Z,99403.69
2022-09-03T14:23:19.487Z,99405.75
2022-09-03T14:25:48.045Z,99403.88
2022-09-03T14:28:16.347Z,99398.59
2022-09-03T14:30:44.043Z,99402.38
2022-09-03T14:33:12.349Z,99408.38
2022-09-03T14:35:40.504Z,99410.13
2022-09-03T14:38:08.194Z,99408.84
2022-09-03T14:40:36.085Z,99415.41
2022-09-03T14:43:03.734Z,99410.50
2022-09-03T14:45:32.024Z,99412.00
2022-09-03T14:47:59.706Z,99416.38
2022-09-03T14:50:27.954Z,99415.63
2022-09-03T14:52:55.788Z,99420.75
2022-09-03T14:55:23.702Z,99420.06
2022-09-03T14:57:51.449Z,99416.84
2022-09-03T15:00:20.214Z,99418.81
2022-09-03T15:02:48.122Z,99422.25
2022-09-03T15:05:19.165Z,99421.44
2022-09-03T15:07:46.931Z,99422.75
2022-09-03T15:10:16.064Z,99421.09
2022-09-03T15:12:43.758Z,99423.44
2022-09-03T15:15:11.782Z,99417.03
2022-09-03T15:17:39.435Z,99421.56
2022-09-03T15:20:07.137Z,99423.16
2022-09-03T15:22:34.867Z,99428.91
2022-09-03T15:25:03.056Z,99429.53
2022-09-03T15:27:32.108Z,99426.03
2022-09-03T15:29:59.871Z,99428.22
2022-09-03T15:32:27.793Z,99423.72
2022-09-03T15:34:56.597Z,99426.84
2022-09-03T15:37:24.289Z,99425.56
2022-09-03T15:39:52.057Z,99429.19
2022-09-03T15:42:19.893Z,99433.69
2022-09-03T15:44:47.617Z,99428.56
2022-09-03T15:47:15.819Z,99431.91
2022-09-03T15:49:44.470Z,99434.31
2022-09-03T15:52:12.441Z,99426.56
2022-09-03T15:54:44.191Z,99426.06
2022-09-03T15:57:11.882Z,99427.25
2022-09-03T15:59:39.560Z,99430.91
2022-09-03T16:02:07.625Z,99432.94
2022-09-03T16:04:36.577Z,99435.56
2022-09-03T16:07:04.644Z,99433.50
2022-09-03T16:09:32.386Z,99436.94
2022-09-03T16:12:00.164Z,99440.00
2022-09-03T16:14:30.843Z,99439.53
2022-09-03T16:16:59.305Z,99436.66
2022-09-03T16:19:26.932Z,99445.53
2022-09-03T16:21:54.660Z,99446.25
2022-09-03T16:24:22.441Z,99441.22
2022-09-03T16:26:51.023Z,99442.56
2022-09-03T16:29:19.167Z,99445.09
2022-09-03T16:31:46.938Z,99446.25
2022-09-03T16:34:18.649Z,99447.88
2022-09-03T16:36:46.999Z,99449.50
2022-09-03T16:39:14.742Z,99454.41
2022-09-03T16:41:43.439Z,99450.34
2022-09-03T16:44:11.426Z,99452.53
2022-09-03T16:46:40.417Z,99453.03
2022-09-03T16:49:08.147Z,99455.69
2022-09-03T16:51:35.871Z,99453.72
2022-09-03T16:54:06.507Z,99455.28
2022-09-03T16:56:34.541Z,99469.41
2022-09-03T16:59:02.173Z,99464.50
2022-09-03T17:01:29.955Z,99465.00
2022-09-03T17:03:57.649Z,99466.31
2022-09-03T17:06:25.693Z,99465.13
2022-09-03T17:08:53.547Z,99463.97
2022-09-03T17:11:21.369Z,99473.47
2022-09-03T17:13:49.328Z,99465.97
2022-09-03T17:16:24.323Z,99467.09
2022-09-03T17:18:52.961Z,99466.50
2022-09-03T17:21:20.987Z,99470.31
2022-09-03T17:23:48.616Z,99469.72
2022-09-03T17:26:16.928Z,99474.34
2022-09-03T17:28:44.731Z,99478.97
2022-09-03T17:31:12.962Z,99478.78
2022-09-03T17:33:42.969Z,99478.63
2022-09-03T17:36:11.001Z,99484.72
2022-09-03T17:38:38.646Z,99480.94
2022-09-03T17:41:06.501Z,99489.97
2022-09-03T17:43:34.282Z,99487.06
2022-09-03T17:46:02.279Z,99483.31
2022-09-03T17:48:29.946Z,99489.41
2022-09-03T17:50:57.711Z,99490.25
2022-09-03T17:53:26.190Z,99500.25
2022-09-03T17:55:54.271Z,99500.50
2022-09-03T17:58:21.997Z,99508.88
2022-09-03T18:00:50.156Z,99515.56
2022-09-03T18:03:17.898Z,99515.34
2022-09-03T18:05:49.873Z,99522.47
2022-09-03T18:08:17.662Z,99526.00
2022-09-03T18:10:45.348Z,99528.31
2022-09-03T18:13:13.617Z,99533.53
2022-09-03T18:15:41.836Z,99529.75
2022-09-03T18:18:09.798Z,99528.72
2022-09-03T18:21:14.760Z,99534.94
2022-09-03T18:24:00.296Z,99545.56
2022-09-03T18:26:45.453Z,99548.28
2022-09-03T18:29:30.442Z,99543.47
2022-09-03T18:32:15.516Z,99548.47
2022-09-03T18:35:00.607Z,99552.63
2022-09-03T18:37:45.857Z,99549.53
2022-09-03T18:40:31.083Z,99559.16
2022-09-03T18:43:16.022Z,99557.66
2022-09-03T18:46:55.398Z,99559.16
2022-09-03T18:49:06.180Z,99558.72
2022-09-03T18:51:51.319Z,99567.50
2022-09-03T18:54:50.842Z,99562.91
2022-09-03T18:57:41.959Z,99565.22
2022-09-03T19:00:29.161Z,99562.50
2022-09-03T19:03:15.747Z,99568.94
2022-09-03T19:06:01.056Z,99566.47
2022-09-03T19:08:46.068Z,99563.94
2022-09-03T19:11:30.962Z,99579.81
2022-09-03T19:14:16.391Z,99572.28
2022-09-03T19:17:01.396Z,99569.34
2022-09-03T19:19:47.789Z,99573.91
2022-09-03T19:22:33.030Z,99575.38
2022-09-03T19:25:17.942Z,99573.47
2022-09-03T19:28:03.118Z,99575.94
2022-09-03T19:30:50.746Z,99584.06
2022-09-03T19:33:36.085Z,99585.91
2022-09-03T19:36:21.352Z,99589.66
2022-09-03T19:39:06.620Z,99591.28
2022-09-03T19:41:53.969Z,99599.53
2022-09-03T19:44:39.425Z,99592.44
2022-09-03T19:47:24.384Z,99607.81
2022-09-03T19:50:09.435Z,99606.09
2022-09-03T19:52:54.869Z,99601.06
2022-09-03T19:55:40.086Z,99614.94
2022-09-03T19:58:42.112Z,99628.63
2022-09-03T20:01:27.464Z,99617.94
2022-09-03T20:04:12.548Z,99627.25
2022-09-03T20:06:57.798Z,99626.38
2022-09-03T20:09:42.787Z,99628.31
2022-09-03T20:12:10.657Z,99630.13
2022-09-03T20:14:39.943Z,99639.03
2022-09-03T20:17:07.604Z,99634.59
2022-09-03T20:19:35.444Z,99636.22
2022-09-03T20:22:03.150Z,99642.38
2022-09-03T20:24:32.586Z,99639.59
2022-09-03T20:27:00.324Z,99643.28
2022-09-03T20:29:28.037Z,99649.63
2022-09-03T20:31:55.901Z,99655.59
2022-09-03T20:34:23.943Z,99660.78
2022-09-03T20:36:54.334Z,99664.88
2022-09-03T20:39:22.192Z,99659.00
2022-09-03T20:41:50.064Z,99663.75
2022-09-03T20:44:18.140Z,99663.13
2022-09-03T20:46:46.399Z,99669.75
2022-09-03T20:49:14.296Z,99667.56
2022-09-03T20:51:41.990Z,99667.13
2022-09-03T20:54:10.094Z,99668.50
2022-09-03T20:56:38.088Z,99670.56
2022-09-03T20:59:05.762Z,99675.50
2022-09-03T21:01:33.850Z,99668.59
2022-09-03T21:04:04.541Z,99677.91
2022-09-03T21:06:32.832Z,99673.94
2022-09-03T21:09:01.082Z,99674.66
2022-09-03T21:11:28.755Z,99677.94
2022-09-03T21:13:56.616Z,99674.47
2022-09-03T21:16:24.365Z,99680.63
2022-09-03T21:18:52.219Z,99675.97
2022-09-03T21:21:20.436Z,99682.28
2022-09-03T21:23:49.380Z,99677.81
2022-09-03T21:26:17.079Z,99685.81
2022-09-03T21:28:45.306Z,99689.22
2022-09-03T21:31:13.080Z,99699.06
2022-09-03T21:33:40.873Z,99691.00
2022-09-03T21:36:08.861Z,99688.03
2022-09-03T21:38:36.695Z,99687.75
2022-09-03T21:41:04.438Z,99684.09
2022-09-03T21:43:32.154Z,99685.66
2022-09-03T21:46:00.765Z,99683.50
2022-09-03T21:48:29.006Z,99677.63
2022-09-03T21:50:56.742Z,99689.59
2022-09-03T21:53:24.771Z,99693.31
2022-09-03T21:55:53.286Z,99686.25
2022-09-03T21:58:21.021Z,99689.13
2022-09-03T22:00:48.800Z,99686.59
2022-09-03T22:03:16.432Z,99685.94
2022-09-03T22:05:44.442Z,99693.38
2022-09-03T22:08:12.234Z,99691.03
2022-09-03T22:10:40.067Z,99689.72
2022-09-03T22:13:15.073Z,99687.56
2022-09-03T22:15:42.883Z,99684.38
2022-09-03T22:18:15.714Z,99690.31
2022-09-03T22:20:45.737Z,99700.63
2022-09-03T22:23:14.104Z,99697.28
2022-09-03T22:25:42.089Z,99699.28
2022-09-03T22:28:09.735Z,99701.31
2022-09-03T22:30:37.508Z,99701.00
2022-09-03T22:33:05.332Z,99708.78
2022-09-03T22:35:34.247Z,99699.69
2022-09-03T22:38:02.134Z,99702.94
2022-09-03T22:40:29.836Z,99695.38
2022-09-03T22:42:57.658Z,99701.25
2022-09-03T22:45:25.581Z,99704.47
2022-09-03T22:47:53.406Z,99704.19
2022-09-03T22:50:21.305Z,99698.78
2022-09-03T22:52:49.555Z,99703.16
2022-09-03T22:55:18.562Z,99706.69
2022-09-03T22:57:46.370Z,99707.53
2022-09-03T23:00:14.107Z,99707.53
2022-09-03T23:02:41.934Z,99711.59
2022-09-03T23:05:09.874Z,99708.75
2022-09-03T23:07:37.583Z,99716.00
2022-09-03T23:10:05.272Z,99711.50
2022-09-03T23:12:32.989Z,99720.09
2022-09-03T23:15:01.504Z,99723.31
2022-09-03T23:19:57.337Z,99725.34
2022-09-03T23:22:25.006Z,99725.84
2022-09-03T23:24:52.729Z,99728.25
2022-09-03T23:27:20.311Z,99732.28
2022-09-03T23:29:47.975Z,99730.91
2022-09-03T23:32:15.691Z,99731.41
2022-09-03T23:34:43.453Z,99731.75
2022-09-03T23:37:32.968Z,99721.31
2022-09-03T23:40:01.389Z,99726.22
2022-09-03T23:42:29.926Z,99726.38
2022-09-03T23:44:57.591Z,99728.22
2022-09-03T23:47:25.358Z,99730.22
2022-09-03T23:49:53.366Z,99720.47
2022-09-03T23:52:21.414Z,99723.31
2022-09-03T23:54:49.159Z,99732.41
2022-09-03T23:57:16.814Z,99736.97
2022-09-03T23:59:44.778Z,99739.31
